sensor_id;sensor_type;location;lat;lon;timestamp;P1;durP1;ratioP1;P2;durP2;ratioP2
22628;SDS011;11481;53.694;9.910;2023-01-29T00:01:36;11.93;;;5.00;;
22628;SDS011;11481;53.694;9.910;2023-01-29T00:04:03;13.95;;;5.07;;
22628;SDS011;11481;53.694;9.910;2023-01-29T00:06:29;11.00;;;4.13;;
22628;SDS011;11481;53.694;9.910;2023-01-29T00:08:57;9.60;;;3.95;;
22628;SDS011;11481;53.694;9.910;2023-01-29T00:11:24;11.55;;;4.22;;
22628;SDS011;11481;53.694;9.910;2023-01-29T00:13:51;11.70;;;5.22;;
22628;SDS011;11481;53.694;9.910;2023-01-29T00:16:18;12.45;;;4.72;;
22628;SDS011;11481;53.694;9.910;2023-01-29T00:18:46;13.25;;;4.85;;
22628;SDS011;11481;53.694;9.910;2023-01-29T00:21:14;8.25;;;4.20;;
22628;SDS011;11481;53.694;9.910;2023-01-29T00:23:42;10.07;;;4.43;;
22628;SDS011;11481;53.694;9.910;2023-01-29T00:26:09;15.82;;;4.22;;
22628;SDS011;11481;53.694;9.910;2023-01-29T00:28:37;11.10;;;4.78;;
22628;SDS011;11481;53.694;9.910;2023-01-29T00:31:10;8.77;;;4.35;;
22628;SDS011;11481;53.694;9.910;2023-01-29T00:33:39;9.15;;;4.32;;
22628;SDS011;11481;53.694;9.910;2023-01-29T00:36:07;9.20;;;4.07;;
22628;SDS011;11481;53.694;9.910;2023-01-29T00:38:36;6.68;;;3.92;;
22628;SDS011;11481;53.694;9.910;2023-01-29T00:41:04;8.45;;;3.63;;
22628;SDS011;11481;53.694;9.910;2023-01-29T00:43:53;11.02;;;4.43;;
22628;SDS011;11481;53.694;9.910;2023-01-29T00:46:38;8.32;;;3.60;;
22628;SDS011;11481;53.694;9.910;2023-01-29T00:49:06;5.88;;;3.17;;
22628;SDS011;11481;53.694;9.910;2023-01-29T00:51:33;9.10;;;4.32;;
22628;SDS011;11481;53.694;9.910;2023-01-29T00:54:01;8.18;;;4.07;;
22628;SDS011;11481;53.694;9.910;2023-01-29T00:56:33;8.43;;;2.70;;
22628;SDS011;11481;53.694;9.910;2023-01-29T00:59:00;10.60;;;2.92;;
22628;SDS011;11481;53.694;9.910;2023-01-29T01:01:27;11.65;;;6.82;;
22628;SDS011;11481;53.694;9.910;2023-01-29T01:04:13;5.60;;;3.33;;
22628;SDS011;11481;53.694;9.910;2023-01-29T01:06:40;9.57;;;4.22;;
22628;SDS011;11481;53.694;9.910;2023-01-29T01:09:08;5.40;;;2.72;;
22628;SDS011;11481;53.694;9.910;2023-01-29T01:11:54;10.88;;;4.53;;
22628;SDS011;11481;53.694;9.910;2023-01-29T01:14:21;11.30;;;4.93;;
22628;SDS011;11481;53.694;9.910;2023-01-29T01:16:48;8.40;;;3.67;;
22628;SDS011;11481;53.694;9.910;2023-01-29T01:19:15;8.63;;;4.28;;
22628;SDS011;11481;53.694;9.910;2023-01-29T01:21:41;5.50;;;3.10;;
22628;SDS011;11481;53.694;9.910;2023-01-29T01:24:11;8.75;;;4.32;;
22628;SDS011;11481;53.694;9.910;2023-01-29T01:26:38;12.63;;;4.00;;
22628;SDS011;11481;53.694;9.910;2023-01-29T01:29:05;9.57;;;2.92;;
22628;SDS011;11481;53.694;9.910;2023-01-29T01:31:32;7.13;;;2.72;;
22628;SDS011;11481;53.694;9.910;2023-01-29T01:33:58;11.90;;;5.05;;
22628;SDS011;11481;53.694;9.910;2023-01-29T01:36:25;6.63;;;3.83;;
22628;SDS011;11481;53.694;9.910;2023-01-29T01:38:52;7.03;;;4.00;;
22628;SDS011;11481;53.694;9.910;2023-01-29T01:41:20;7.88;;;4.00;;
22628;SDS011;11481;53.694;9.910;2023-01-29T01:46:20;9.38;;;3.42;;
22628;SDS011;11481;53.694;9.910;2023-01-29T01:48:50;11.35;;;4.47;;
22628;SDS011;11481;53.694;9.910;2023-01-29T01:51:31;8.90;;;4.38;;
22628;SDS011;11481;53.694;9.910;2023-01-29T01:56:33;7.45;;;3.92;;
22628;SDS011;11481;53.694;9.910;2023-01-29T01:59:07;8.13;;;3.92;;
22628;SDS011;11481;53.694;9.910;2023-01-29T02:01:37;9.10;;;4.10;;
22628;SDS011;11481;53.694;9.910;2023-01-29T02:04:08;13.00;;;4.45;;
22628;SDS011;11481;53.694;9.910;2023-01-29T02:06:58;7.15;;;4.30;;
22628;SDS011;11481;53.694;9.910;2023-01-29T02:09:47;16.48;;;5.22;;
22628;SDS011;11481;53.694;9.910;2023-01-29T02:12:18;8.95;;;4.50;;
22628;SDS011;11481;53.694;9.910;2023-01-29T02:14:46;8.63;;;3.55;;
22628;SDS011;11481;53.694;9.910;2023-01-29T02:17:13;7.43;;;3.80;;
22628;SDS011;11481;53.694;9.910;2023-01-29T02:33:43;12.25;;;3.95;;
22628;SDS011;11481;53.694;9.910;2023-01-29T02:41:27;5.40;;;3.15;;
22628;SDS011;11481;53.694;9.910;2023-01-29T02:44:07;10.52;;;5.10;;
22628;SDS011;11481;53.694;9.910;2023-01-29T02:47:01;9.15;;;3.60;;
22628;SDS011;11481;53.694;9.910;2023-01-29T02:49:35;6.60;;;2.90;;
22628;SDS011;11481;53.694;9.910;2023-01-29T02:52:16;9.55;;;3.40;;
22628;SDS011;11481;53.694;9.910;2023-01-29T02:54:56;6.28;;;3.33;;
22628;SDS011;11481;53.694;9.910;2023-01-29T02:57:29;7.30;;;3.65;;
22628;SDS011;11481;53.694;9.910;2023-01-29T03:00:09;7.05;;;4.10;;
22628;SDS011;11481;53.694;9.910;2023-01-29T03:05:13;8.57;;;5.28;;
22628;SDS011;11481;53.694;9.910;2023-01-29T03:07:45;8.05;;;5.85;;
22628;SDS011;11481;53.694;9.910;2023-01-29T03:13:07;9.27;;;5.15;;
22628;SDS011;11481;53.694;9.910;2023-01-29T03:15:47;9.98;;;5.47;;
22628;SDS011;11481;53.694;9.910;2023-01-29T03:18:20;7.20;;;2.45;;
22628;SDS011;11481;53.694;9.910;2023-01-29T03:20:53;11.82;;;3.85;;
22628;SDS011;11481;53.694;9.910;2023-01-29T03:23:30;6.43;;;3.80;;
22628;SDS011;11481;53.694;9.910;2023-01-29T03:26:19;6.53;;;4.70;;
22628;SDS011;11481;53.694;9.910;2023-01-29T03:29:06;6.05;;;3.40;;
22628;SDS011;11481;53.694;9.910;2023-01-29T03:31:54;9.77;;;3.75;;
22628;SDS011;11481;53.694;9.910;2023-01-29T03:34:40;5.90;;;2.38;;
22628;SDS011;11481;53.694;9.910;2023-01-29T03:37:19;9.70;;;3.35;;
22628;SDS011;11481;53.694;9.910;2023-01-29T03:39:51;11.95;;;4.78;;
22628;SDS011;11481;53.694;9.910;2023-01-29T03:42:21;8.02;;;4.38;;
22628;SDS011;11481;53.694;9.910;2023-01-29T03:53:22;5.97;;;4.03;;
22628;SDS011;11481;53.694;9.910;2023-01-29T03:56:36;6.10;;;3.28;;
22628;SDS011;11481;53.694;9.910;2023-01-29T03:59:03;11.05;;;4.22;;
22628;SDS011;11481;53.694;9.910;2023-01-29T04:01:53;9.32;;;3.65;;
22628;SDS011;11481;53.694;9.910;2023-01-29T04:04:41;6.15;;;3.15;;
22628;SDS011;11481;53.694;9.910;2023-01-29T04:07:11;12.43;;;3.17;;
22628;SDS011;11481;53.694;9.910;2023-01-29T04:09:48;8.95;;;4.13;;
22628;SDS011;11481;53.694;9.910;2023-01-29T04:12:25;7.25;;;3.35;;
22628;SDS011;11481;53.694;9.910;2023-01-29T04:14:54;8.75;;;4.05;;
22628;SDS011;11481;53.694;9.910;2023-01-29T04:17:26;7.10;;;3.00;;
22628;SDS011;11481;53.694;9.910;2023-01-29T04:19:59;10.05;;;5.30;;
22628;SDS011;11481;53.694;9.910;2023-01-29T04:22:30;7.03;;;3.42;;
22628;SDS011;11481;53.694;9.910;2023-01-29T04:25:00;7.10;;;3.03;;
22628;SDS011;11481;53.694;9.910;2023-01-29T04:30:37;6.80;;;3.42;;
22628;SDS011;11481;53.694;9.910;2023-01-29T04:33:28;7.85;;;4.00;;
22628;SDS011;11481;53.694;9.910;2023-01-29T04:36:13;9.40;;;4.20;;
22628;SDS011;11481;53.694;9.910;2023-01-29T04:39:02;10.63;;;3.67;;
22628;SDS011;11481;53.694;9.910;2023-01-29T04:41:41;7.47;;;3.63;;
22628;SDS011;11481;53.694;9.910;2023-01-29T04:44:20;10.02;;;3.40;;
22628;SDS011;11481;53.694;9.910;2023-01-29T04:50:12;5.70;;;3.47;;
22628;SDS011;11481;53.694;9.910;2023-01-29T04:55:39;5.45;;;3.10;;
22628;SDS011;11481;53.694;9.910;2023-01-29T04:58:15;5.70;;;3.60;;
22628;SDS011;11481;53.694;9.910;2023-01-29T05:00:58;4.20;;;2.60;;
22628;SDS011;11481;53.694;9.910;2023-01-29T05:03:27;4.57;;;2.78;;
22628;SDS011;11481;53.694;9.910;2023-01-29T05:05:58;3.75;;;2.30;;
22628;SDS011;11481;53.694;9.910;2023-01-29T05:08:26;9.55;;;3.17;;
22628;SDS011;11481;53.694;9.910;2023-01-29T05:10:56;9.85;;;4.05;;
22628;SDS011;11481;53.694;9.910;2023-01-29T05:13:25;26.23;;;3.97;;
22628;SDS011;11481;53.694;9.910;2023-01-29T05:15:56;12.10;;;4.10;;
22628;SDS011;11481;53.694;9.910;2023-01-29T05:18:31;4.95;;;3.28;;
22628;SDS011;11481;53.694;9.910;2023-01-29T05:21:00;9.40;;;3.95;;
22628;SDS011;11481;53.694;9.910;2023-01-29T05:23:31;5.88;;;3.25;;
22628;SDS011;11481;53.694;9.910;2023-01-29T05:25:57;12.38;;;4.32;;
22628;SDS011;11481;53.694;9.910;2023-01-29T05:28:24;6.78;;;3.00;;
22628;SDS011;11481;53.694;9.910;2023-01-29T05:30:52;8.95;;;4.28;;
22628;SDS011;11481;53.694;9.910;2023-01-29T05:33:28;5.97;;;2.10;;
22628;SDS011;11481;53.694;9.910;2023-01-29T05:35:59;8.52;;;2.28;;
22628;SDS011;11481;53.694;9.910;2023-01-29T05:38:26;6.60;;;3.47;;
22628;SDS011;11481;53.694;9.910;2023-01-29T05:40:53;7.72;;;3.90;;
22628;SDS011;11481;53.694;9.910;2023-01-29T05:43:21;11.38;;;3.50;;
22628;SDS011;11481;53.694;9.910;2023-01-29T05:45:58;13.15;;;4.40;;
22628;SDS011;11481;53.694;9.910;2023-01-29T05:48:26;5.60;;;2.67;;
22628;SDS011;11481;53.694;9.910;2023-01-29T05:50:58;6.13;;;3.08;;
22628;SDS011;11481;53.694;9.910;2023-01-29T05:53:27;5.90;;;2.53;;
22628;SDS011;11481;53.694;9.910;2023-01-29T05:55:54;9.27;;;2.83;;
22628;SDS011;11481;53.694;9.910;2023-01-29T05:58:24;9.02;;;3.58;;
22628;SDS011;11481;53.694;9.910;2023-01-29T06:00:51;6.30;;;3.13;;
22628;SDS011;11481;53.694;9.910;2023-01-29T06:03:17;7.53;;;4.65;;
22628;SDS011;11481;53.694;9.910;2023-01-29T06:05:44;4.15;;;2.75;;
22628;SDS011;11481;53.694;9.910;2023-01-29T06:08:11;6.78;;;4.20;;
22628;SDS011;11481;53.694;9.910;2023-01-29T06:10:38;8.07;;;4.32;;
22628;SDS011;11481;53.694;9.910;2023-01-29T06:13:05;10.32;;;4.22;;
22628;SDS011;11481;53.694;9.910;2023-01-29T06:15:32;7.88;;;3.22;;
22628;SDS011;11481;53.694;9.910;2023-01-29T06:17:58;9.57;;;3.58;;
22628;SDS011;11481;53.694;9.910;2023-01-29T06:20:25;11.00;;;4.30;;
22628;SDS011;11481;53.694;9.910;2023-01-29T06:22:52;6.03;;;3.30;;
22628;SDS011;11481;53.694;9.910;2023-01-29T06:25:18;5.00;;;2.97;;
22628;SDS011;11481;53.694;9.910;2023-01-29T06:27:45;10.05;;;3.60;;
22628;SDS011;11481;53.694;9.910;2023-01-29T06:30:15;5.82;;;2.95;;
22628;SDS011;11481;53.694;9.910;2023-01-29T06:32:42;10.00;;;3.95;;
22628;SDS011;11481;53.694;9.910;2023-01-29T06:35:09;7.32;;;4.53;;
22628;SDS011;11481;53.694;9.910;2023-01-29T06:37:36;7.68;;;4.22;;
22628;SDS011;11481;53.694;9.910;2023-01-29T06:40:03;10.40;;;3.47;;
22628;SDS011;11481;53.694;9.910;2023-01-29T06:42:31;6.22;;;2.55;;
22628;SDS011;11481;53.694;9.910;2023-01-29T06:45:00;7.15;;;4.13;;
22628;SDS011;11481;53.694;9.910;2023-01-29T06:47:27;9.27;;;4.47;;
22628;SDS011;11481;53.694;9.910;2023-01-29T06:49:53;9.02;;;3.92;;
22628;SDS011;11481;53.694;9.910;2023-01-29T06:52:20;7.10;;;2.90;;
22628;SDS011;11481;53.694;9.910;2023-01-29T06:54:47;8.80;;;3.92;;
22628;SDS011;11481;53.694;9.910;2023-01-29T06:57:13;7.40;;;3.90;;
22628;SDS011;11481;53.694;9.910;2023-01-29T06:59:40;5.93;;;3.00;;
22628;SDS011;11481;53.694;9.910;2023-01-29T07:02:07;6.75;;;3.22;;
22628;SDS011;11481;53.694;9.910;2023-01-29T07:04:34;10.98;;;4.57;;
22628;SDS011;11481;53.694;9.910;2023-01-29T07:07:02;7.80;;;3.10;;
22628;SDS011;11481;53.694;9.910;2023-01-29T07:09:29;10.40;;;4.65;;
22628;SDS011;11481;53.694;9.910;2023-01-29T07:11:56;6.70;;;3.88;;
22628;SDS011;11481;53.694;9.910;2023-01-29T07:14:23;10.48;;;3.42;;
22628;SDS011;11481;53.694;9.910;2023-01-29T07:16:49;8.60;;;3.30;;
22628;SDS011;11481;53.694;9.910;2023-01-29T07:19:16;8.30;;;3.67;;
22628;SDS011;11481;53.694;9.910;2023-01-29T07:21:43;12.70;;;4.47;;
22628;SDS011;11481;53.694;9.910;2023-01-29T07:24:09;6.35;;;3.08;;
22628;SDS011;11481;53.694;9.910;2023-01-29T07:26:36;8.93;;;3.72;;
22628;SDS011;11481;53.694;9.910;2023-01-29T07:29:03;14.13;;;4.15;;
22628;SDS011;11481;53.694;9.910;2023-01-29T07:31:30;14.07;;;4.00;;
22628;SDS011;11481;53.694;9.910;2023-01-29T07:33:57;10.45;;;4.85;;
22628;SDS011;11481;53.694;9.910;2023-01-29T07:36:23;13.90;;;5.07;;
22628;SDS011;11481;53.694;9.910;2023-01-29T07:38:50;8.18;;;3.72;;
22628;SDS011;11481;53.694;9.910;2023-01-29T07:41:17;10.57;;;4.82;;
22628;SDS011;11481;53.694;9.910;2023-01-29T07:43:44;7.57;;;3.70;;
22628;SDS011;11481;53.694;9.910;2023-01-29T07:46:10;10.63;;;4.68;;
22628;SDS011;11481;53.694;9.910;2023-01-29T07:48:37;8.18;;;4.13;;
22628;SDS011;11481;53.694;9.910;2023-01-29T07:51:04;15.90;;;5.32;;
22628;SDS011;11481;53.694;9.910;2023-01-29T07:53:31;13.38;;;5.45;;
22628;SDS011;11481;53.694;9.910;2023-01-29T07:55:57;10.05;;;4.57;;
22628;SDS011;11481;53.694;9.910;2023-01-29T07:58:24;14.93;;;5.50;;
22628;SDS011;11481;53.694;9.910;2023-01-29T08:00:51;8.73;;;4.05;;
22628;SDS011;11481;53.694;9.910;2023-01-29T08:03:18;13.68;;;5.18;;
22628;SDS011;11481;53.694;9.910;2023-01-29T08:05:46;11.38;;;4.63;;
22628;SDS011;11481;53.694;9.910;2023-01-29T08:08:13;12.20;;;5.55;;
22628;SDS011;11481;53.694;9.910;2023-01-29T08:10:39;15.15;;;4.97;;
22628;SDS011;11481;53.694;9.910;2023-01-29T08:13:07;10.73;;;5.60;;
22628;SDS011;11481;53.694;9.910;2023-01-29T08:15:34;10.60;;;5.05;;
22628;SDS011;11481;53.694;9.910;2023-01-29T08:18:04;10.75;;;5.43;;
22628;SDS011;11481;53.694;9.910;2023-01-29T08:20:31;8.57;;;4.47;;
22628;SDS011;11481;53.694;9.910;2023-01-29T08:22:58;9.98;;;5.43;;
22628;SDS011;11481;53.694;9.910;2023-01-29T08:25:26;11.32;;;5.20;;
22628;SDS011;11481;53.694;9.910;2023-01-29T08:27:54;11.07;;;5.28;;
22628;SDS011;11481;53.694;9.910;2023-01-29T08:30:24;15.20;;;5.47;;
22628;SDS011;11481;53.694;9.910;2023-01-29T08:32:54;11.25;;;5.68;;
22628;SDS011;11481;53.694;9.910;2023-01-29T08:35:21;15.68;;;5.15;;
22628;SDS011;11481;53.694;9.910;2023-01-29T08:37:52;12.55;;;5.85;;
22628;SDS011;11481;53.694;9.910;2023-01-29T08:40:26;12.80;;;5.63;;
22628;SDS011;11481;53.694;9.910;2023-01-29T08:42:57;10.43;;;4.78;;
22628;SDS011;11481;53.694;9.910;2023-01-29T08:45:28;13.55;;;7.35;;
22628;SDS011;11481;53.694;9.910;2023-01-29T08:47:55;13.90;;;5.45;;
22628;SDS011;11481;53.694;9.910;2023-01-29T08:50:22;15.07;;;4.63;;
22628;SDS011;11481;53.694;9.910;2023-01-29T08:52:48;13.43;;;6.30;;
22628;SDS011;11481;53.694;9.910;2023-01-29T08:55:15;11.85;;;5.70;;
22628;SDS011;11481;53.694;9.910;2023-01-29T08:57:43;13.02;;;7.10;;
22628;SDS011;11481;53.694;9.910;2023-01-29T09:00:09;12.95;;;6.72;;
22628;SDS011;11481;53.694;9.910;2023-01-29T09:02:37;15.93;;;7.03;;
22628;SDS011;11481;53.694;9.910;2023-01-29T09:05:04;14.23;;;6.53;;
22628;SDS011;11481;53.694;9.910;2023-01-29T09:07:31;18.50;;;7.30;;
22628;SDS011;11481;53.694;9.910;2023-01-29T09:09:58;19.50;;;6.72;;
22628;SDS011;11481;53.694;9.910;2023-01-29T09:12:25;17.13;;;7.50;;
22628;SDS011;11481;53.694;9.910;2023-01-29T09:14:51;22.63;;;7.32;;
22628;SDS011;11481;53.694;9.910;2023-01-29T09:17:18;20.33;;;8.88;;
22628;SDS011;11481;53.694;9.910;2023-01-29T09:19:45;17.13;;;7.53;;
22628;SDS011;11481;53.694;9.910;2023-01-29T09:22:11;18.08;;;8.73;;
22628;SDS011;11481;53.694;9.910;2023-01-29T09:24:38;16.60;;;6.50;;
22628;SDS011;11481;53.694;9.910;2023-01-29T09:27:05;20.08;;;8.05;;
22628;SDS011;11481;53.694;9.910;2023-01-29T09:29:31;17.58;;;7.05;;
22628;SDS011;11481;53.694;9.910;2023-01-29T09:32:01;18.70;;;8.13;;
22628;SDS011;11481;53.694;9.910;2023-01-29T09:34:29;18.67;;;9.80;;
22628;SDS011;11481;53.694;9.910;2023-01-29T09:36:56;17.73;;;7.03;;
22628;SDS011;11481;53.694;9.910;2023-01-29T09:39:23;13.25;;;5.00;;
22628;SDS011;11481;53.694;9.910;2023-01-29T09:41:52;19.02;;;7.40;;
22628;SDS011;11481;53.694;9.910;2023-01-29T09:47:02;19.15;;;5.72;;
22628;SDS011;11481;53.694;9.910;2023-01-29T09:49:34;20.95;;;8.30;;
22628;SDS011;11481;53.694;9.910;2023-01-29T09:52:12;14.63;;;6.88;;
22628;SDS011;11481;53.694;9.910;2023-01-29T09:54:48;13.80;;;7.22;;
22628;SDS011;11481;53.694;9.910;2023-01-29T09:57:32;14.85;;;6.50;;
22628;SDS011;11481;53.694;9.910;2023-01-29T10:00:06;13.77;;;7.70;;
22628;SDS011;11481;53.694;9.910;2023-01-29T10:02:51;25.25;;;8.68;;
22628;SDS011;11481;53.694;9.910;2023-01-29T10:08:19;18.17;;;7.45;;
22628;SDS011;11481;53.694;9.910;2023-01-29T10:11:00;19.50;;;8.98;;
22628;SDS011;11481;53.694;9.910;2023-01-29T10:13:39;15.43;;;6.53;;
22628;SDS011;11481;53.694;9.910;2023-01-29T10:16:35;14.68;;;5.72;;
22628;SDS011;11481;53.694;9.910;2023-01-29T10:19:27;15.77;;;6.28;;
22628;SDS011;11481;53.694;9.910;2023-01-29T10:24:41;18.17;;;7.38;;
22628;SDS011;11481;53.694;9.910;2023-01-29T10:27:17;16.52;;;7.07;;
22628;SDS011;11481;53.694;9.910;2023-01-29T10:29:44;24.67;;;7.28;;
22628;SDS011;11481;53.694;9.910;2023-01-29T10:32:17;22.25;;;7.60;;
22628;SDS011;11481;53.694;9.910;2023-01-29T10:35:05;21.00;;;6.85;;
22628;SDS011;11481;53.694;9.910;2023-01-29T10:37:39;17.77;;;7.78;;
22628;SDS011;11481;53.694;9.910;2023-01-29T10:40:28;19.02;;;8.00;;
22628;SDS011;11481;53.694;9.910;2023-01-29T10:43:16;17.13;;;6.97;;
22628;SDS011;11481;53.694;9.910;2023-01-29T10:46:00;15.45;;;7.25;;
22628;SDS011;11481;53.694;9.910;2023-01-29T10:54:36;11.43;;;6.18;;
22628;SDS011;11481;53.694;9.910;2023-01-29T10:57:08;14.00;;;5.78;;
22628;SDS011;11481;53.694;9.910;2023-01-29T11:02:27;19.98;;;7.63;;
22628;SDS011;11481;53.694;9.910;2023-01-29T11:04:53;22.77;;;7.55;;
22628;SDS011;11481;53.694;9.910;2023-01-29T11:07:20;15.13;;;7.93;;
22628;SDS011;11481;53.694;9.910;2023-01-29T11:09:50;22.05;;;7.45;;
22628;SDS011;11481;53.694;9.910;2023-01-29T11:12:22;22.55;;;10.07;;
22628;SDS011;11481;53.694;9.910;2023-01-29T11:17:39;24.92;;;8.23;;
22628;SDS011;11481;53.694;9.910;2023-01-29T11:20:28;17.15;;;7.45;;
22628;SDS011;11481;53.694;9.910;2023-01-29T11:22:56;19.92;;;7.45;;
22628;SDS011;11481;53.694;9.910;2023-01-29T11:25:24;20.33;;;8.25;;
22628;SDS011;11481;53.694;9.910;2023-01-29T11:27:56;15.68;;;7.10;;
22628;SDS011;11481;53.694;9.910;2023-01-29T11:30:27;26.23;;;8.30;;
22628;SDS011;11481;53.694;9.910;2023-01-29T11:35:57;20.40;;;8.55;;
22628;SDS011;11481;53.694;9.910;2023-01-29T11:38:26;19.55;;;9.00;;
22628;SDS011;11481;53.694;9.910;2023-01-29T11:41:12;41.63;;;9.98;;
22628;SDS011;11481;53.694;9.910;2023-01-29T11:43:43;20.23;;;8.30;;
22628;SDS011;11481;53.694;9.910;2023-01-29T11:46:11;18.80;;;8.93;;
22628;SDS011;11481;53.694;9.910;2023-01-29T11:48:41;21.95;;;9.18;;
22628;SDS011;11481;53.694;9.910;2023-01-29T11:51:11;22.60;;;9.85;;
22628;SDS011;11481;53.694;9.910;2023-01-29T11:53:54;20.88;;;7.45;;
22628;SDS011;11481;53.694;9.910;2023-01-29T11:56:29;16.65;;;7.95;;
22628;SDS011;11481;53.694;9.910;2023-01-29T11:59:00;21.65;;;8.00;;
22628;SDS011;11481;53.694;9.910;2023-01-29T12:01:31;26.75;;;8.02;;
22628;SDS011;11481;53.694;9.910;2023-01-29T12:04:08;14.13;;;7.95;;
22628;SDS011;11481;53.694;9.910;2023-01-29T12:06:44;30.92;;;9.73;;
22628;SDS011;11481;53.694;9.910;2023-01-29T12:09:17;14.52;;;7.32;;
22628;SDS011;11481;53.694;9.910;2023-01-29T12:11:47;22.13;;;9.32;;
22628;SDS011;11481;53.694;9.910;2023-01-29T12:14:23;18.33;;;10.20;;
22628;SDS011;11481;53.694;9.910;2023-01-29T12:19:48;25.98;;;7.90;;
22628;SDS011;11481;53.694;9.910;2023-01-29T12:22:22;17.40;;;7.80;;
22628;SDS011;11481;53.694;9.910;2023-01-29T12:25:10;20.10;;;7.82;;
22628;SDS011;11481;53.694;9.910;2023-01-29T12:30:47;18.13;;;7.82;;
22628;SDS011;11481;53.694;9.910;2023-01-29T12:33:36;19.73;;;8.15;;
22628;SDS011;11481;53.694;9.910;2023-01-29T12:36:18;17.58;;;8.40;;
22628;SDS011;11481;53.694;9.910;2023-01-29T12:38:58;17.13;;;8.02;;
22628;SDS011;11481;53.694;9.910;2023-01-29T12:46:50;17.15;;;7.50;;
22628;SDS011;11481;53.694;9.910;2023-01-29T12:49:22;18.83;;;7.30;;
22628;SDS011;11481;53.694;9.910;2023-01-29T12:52:00;17.25;;;6.82;;
22628;SDS011;11481;53.694;9.910;2023-01-29T12:54:52;17.98;;;8.82;;
22628;SDS011;11481;53.694;9.910;2023-01-29T12:57:28;22.92;;;8.50;;
22628;SDS011;11481;53.694;9.910;2023-01-29T13:00:07;19.17;;;8.73;;
22628;SDS011;11481;53.694;9.910;2023-01-29T13:02:40;19.15;;;9.13;;
22628;SDS011;11481;53.694;9.910;2023-01-29T13:05:22;26.90;;;10.10;;
22628;SDS011;11481;53.694;9.910;2023-01-29T13:07:58;19.05;;;7.38;;
22628;SDS011;11481;53.694;9.910;2023-01-29T13:10:35;17.88;;;8.93;;
22628;SDS011;11481;53.694;9.910;2023-01-29T13:13:11;18.27;;;6.93;;
22628;SDS011;11481;53.694;9.910;2023-01-29T13:16:02;23.23;;;9.18;;
22628;SDS011;11481;53.694;9.910;2023-01-29T13:21:37;20.30;;;7.97;;
22628;SDS011;11481;53.694;9.910;2023-01-29T13:26:39;19.92;;;8.60;;
22628;SDS011;11481;53.694;9.910;2023-01-29T13:29:29;24.58;;;9.88;;
22628;SDS011;11481;53.694;9.910;2023-01-29T13:31:59;23.17;;;8.73;;
22628;SDS011;11481;53.694;9.910;2023-01-29T13:34:32;21.50;;;7.30;;
22628;SDS011;11481;53.694;9.910;2023-01-29T13:37:36;23.05;;;9.00;;
22628;SDS011;11481;53.694;9.910;2023-01-29T13:39:55;21.60;;;9.02;;
22628;SDS011;11481;53.694;9.910;2023-01-29T13:45:18;21.00;;;8.00;;
22628;SDS011;11481;53.694;9.910;2023-01-29T13:47:52;21.40;;;9.15;;
22628;SDS011;11481;53.694;9.910;2023-01-29T13:50:20;20.92;;;8.75;;
22628;SDS011;11481;53.694;9.910;2023-01-29T13:52:53;17.38;;;8.30;;
22628;SDS011;11481;53.694;9.910;2023-01-29T13:55:34;20.00;;;8.68;;
22628;SDS011;11481;53.694;9.910;2023-01-29T13:58:12;21.15;;;9.18;;
22628;SDS011;11481;53.694;9.910;2023-01-29T14:01:03;24.70;;;9.57;;
22628;SDS011;11481;53.694;9.910;2023-01-29T14:06:10;22.08;;;9.63;;
22628;SDS011;11481;53.694;9.910;2023-01-29T14:08:38;22.00;;;9.13;;
22628;SDS011;11481;53.694;9.910;2023-01-29T14:13:41;15.90;;;8.10;;
22628;SDS011;11481;53.694;9.910;2023-01-29T14:18:45;21.60;;;9.30;;
22628;SDS011;11481;53.694;9.910;2023-01-29T14:21:28;20.00;;;10.50;;
22628;SDS011;11481;53.694;9.910;2023-01-29T14:24:19;22.42;;;9.02;;
22628;SDS011;11481;53.694;9.910;2023-01-29T14:26:46;19.05;;;7.93;;
22628;SDS011;11481;53.694;9.910;2023-01-29T14:29:18;20.48;;;7.15;;
22628;SDS011;11481;53.694;9.910;2023-01-29T14:34:40;17.20;;;7.35;;
22628;SDS011;11481;53.694;9.910;2023-01-29T14:39:47;12.98;;;7.88;;
22628;SDS011;11481;53.694;9.910;2023-01-29T14:42:25;20.58;;;9.52;;
22628;SDS011;11481;53.694;9.910;2023-01-29T14:47:52;20.77;;;8.75;;
22628;SDS011;11481;53.694;9.910;2023-01-29T14:53:08;18.02;;;7.70;;
22628;SDS011;11481;53.694;9.910;2023-01-29T14:56:00;17.88;;;8.52;;
22628;SDS011;11481;53.694;9.910;2023-01-29T14:58:44;15.20;;;8.52;;
22628;SDS011;11481;53.694;9.910;2023-01-29T15:01:29;26.77;;;7.45;;
22628;SDS011;11481;53.694;9.910;2023-01-29T15:06:32;20.27;;;9.32;;
22628;SDS011;11481;53.694;9.910;2023-01-29T15:09:11;20.02;;;8.60;;
22628;SDS011;11481;53.694;9.910;2023-01-29T15:17:51;17.63;;;8.43;;
22628;SDS011;11481;53.694;9.910;2023-01-29T15:20:33;18.48;;;7.82;;
22628;SDS011;11481;53.694;9.910;2023-01-29T15:23:01;19.80;;;8.02;;
22628;SDS011;11481;53.694;9.910;2023-01-29T15:25:32;23.13;;;9.60;;
22628;SDS011;11481;53.694;9.910;2023-01-29T15:28:02;20.05;;;9.43;;
22628;SDS011;11481;53.694;9.910;2023-01-29T15:30:33;23.48;;;8.75;;
22628;SDS011;11481;53.694;9.910;2023-01-29T15:33:01;18.92;;;8.65;;
22628;SDS011;11481;53.694;9.910;2023-01-29T15:35:38;17.35;;;6.93;;
22628;SDS011;11481;53.694;9.910;2023-01-29T15:38:16;19.27;;;8.32;;
22628;SDS011;11481;53.694;9.910;2023-01-29T15:40:55;28.23;;;10.30;;
22628;SDS011;11481;53.694;9.910;2023-01-29T15:43:30;17.17;;;8.18;;
22628;SDS011;11481;53.694;9.910;2023-01-29T15:46:04;20.05;;;7.97;;
22628;SDS011;11481;53.694;9.910;2023-01-29T15:48:36;24.45;;;9.88;;
22628;SDS011;11481;53.694;9.910;2023-01-29T15:51:06;18.45;;;8.18;;
22628;SDS011;11481;53.694;9.910;2023-01-29T15:53:36;18.17;;;8.60;;
22628;SDS011;11481;53.694;9.910;2023-01-29T15:56:08;20.15;;;8.57;;
22628;SDS011;11481;53.694;9.910;2023-01-29T15:58:37;15.10;;;7.57;;
22628;SDS011;11481;53.694;9.910;2023-01-29T16:01:05;19.23;;;8.57;;
22628;SDS011;11481;53.694;9.910;2023-01-29T16:03:32;20.67;;;8.07;;
22628;SDS011;11481;53.694;9.910;2023-01-29T16:06:01;24.13;;;8.57;;
22628;SDS011;11481;53.694;9.910;2023-01-29T16:08:27;26.02;;;9.55;;
22628;SDS011;11481;53.694;9.910;2023-01-29T16:10:55;17.95;;;7.95;;
22628;SDS011;11481;53.694;9.910;2023-01-29T16:13:28;18.13;;;9.20;;
22628;SDS011;11481;53.694;9.910;2023-01-29T16:16:34;18.10;;;9.75;;
22628;SDS011;11481;53.694;9.910;2023-01-29T16:18:53;18.65;;;8.02;;
22628;SDS011;11481;53.694;9.910;2023-01-29T16:21:32;20.65;;;9.38;;
22628;SDS011;11481;53.694;9.910;2023-01-29T16:24:10;26.73;;;10.73;;
22628;SDS011;11481;53.694;9.910;2023-01-29T16:26:41;20.27;;;8.27;;
22628;SDS011;11481;53.694;9.910;2023-01-29T16:29:14;18.48;;;8.63;;
22628;SDS011;11481;53.694;9.910;2023-01-29T16:31:43;26.00;;;9.38;;
22628;SDS011;11481;53.694;9.910;2023-01-29T16:34:13;23.95;;;8.68;;
22628;SDS011;11481;53.694;9.910;2023-01-29T16:36:46;20.25;;;8.57;;
22628;SDS011;11481;53.694;9.910;2023-01-29T16:39:22;21.10;;;10.45;;
22628;SDS011;11481;53.694;9.910;2023-01-29T16:42:06;15.20;;;7.95;;
22628;SDS011;11481;53.694;9.910;2023-01-29T16:47:19;28.08;;;12.73;;
22628;SDS011;11481;53.694;9.910;2023-01-29T16:49:53;20.38;;;10.48;;
22628;SDS011;11481;53.694;9.910;2023-01-29T16:52:23;23.30;;;10.13;;
22628;SDS011;11481;53.694;9.910;2023-01-29T16:54:57;19.90;;;9.38;;
22628;SDS011;11481;53.694;9.910;2023-01-29T16:57:26;25.50;;;9.77;;
22628;SDS011;11481;53.694;9.910;2023-01-29T16:59:58;24.73;;;8.57;;
22628;SDS011;11481;53.694;9.910;2023-01-29T17:02:30;21.17;;;10.32;;
22628;SDS011;11481;53.694;9.910;2023-01-29T17:05:03;25.77;;;11.80;;
22628;SDS011;11481;53.694;9.910;2023-01-29T17:07:33;18.80;;;9.18;;
22628;SDS011;11481;53.694;9.910;2023-01-29T17:10:02;26.52;;;11.48;;